Briefing drone pour Saint-pourcain-sur-sioule

Rechercher une autre localisation

Conditions de vol :


Nous sommes le : Mardi 16 août 2022
Il est 01:45 UTC (03:45 LT)

Lever de soleil : 04:20 UTC (06:20 LT)
Coucher de soleil : 19:21 UTC (21:21 LT)

Météo

L'essentiel des conditions de vol

VIGILANCE MÉTÉO FRANCE - Allier (03)
Pas de vigilances particulieres
CARTE TEMSI
CARTES DES FRONTS
METAR de LFLV
LFLV 151800Z AUTO VRB02KT CAVOK 26/13 Q1008

Date d'émission: 15/08/2022
Heure d'émission: 18:00 UTC
Vent: Variable 2 KT (4 km/h)
Visibilité horizontale: > 10 km
Plafond : Plafond et visibilité OK (CAVOK)
Température: 26 °C
Point de rosée: 13 °C
Humidité: 45%
Pression (QNH): 1008 hPa
Prévision 24h pour Vichy (14 km)
Vent : 217° pour 2 KT (9 km/h)
Temperature Maxi: 16 °C
Temperature Min: 16 °C
Humidité : 96%
Condition : Légère pluie



Warning: count(): Parameter must be an array or an object that implements Countable in /homepages/6/d509196549/htdocs/droneoxygene/briefing.php on line 743
WEBCAM POUR SAINT-POURCAIN-SUR-SIOULE

Réglementation

Voler en sécurité

CARTES AERONAUTIQUE 1/500.000
CARTE AZBA (Reseau basse altitude)
CARTES VAC (LFLV)
SUP AIP




Chargement des AIP...
NOTAM (SAINT-POURCAIN-SUR-SIOULE + Terrain à proximité / FIR )




Chargement des NOTAMS...
CONTACT PREFECTURE 03


Avertissement : Les données mises à disposition sont indicatives. Oxygène Drone ne pourra être tenu responsable de dégâts causés aux biens et aux personnes.